Terminal Aerodrome Forecast
Issued by NWS

Current Version | Previous Version | Graphics & Text | Print | Product List | Glossary On
Versions: 1 2 3 4 5 6 7 8 9 10 11 12 13 14 15 16 17 18 19 20 21 22 23 24
726
FTUS41 KPBZ 231130
TAFMGW
TAF
KMGW 231130Z 2312/2412 05010G20KT P6SM -RA OVC025
     FM231800 07010G20KT 3SM -RA BR OVC015
     FM232000 07010KT 3SM -RA BR OVC008
     FM240400 35005KT P6SM VCSH OVC008=

USA.gov is the U.S. government's official web portal to all federal, state and local government web resources and services.